Time;durP1;ratioP1;P1;durP2;ratioP2;P2;SDS_P1;SDS_P2;PMS_P1;PMS_P2;Temp;Humidity;BMP_temperature;BMP_pressure;BME280_temperature;BME280_humidity;BME280_pressure;Samples;Min_cycle;Max_cycle;Signal;HPM_P1;HPM_P2
2021/05/17 00:02:00;;;;;;;7.47;4.20;;;11.80;90.70;;;;;;5055685;28;20479;-75
2021/05/17 00:04:34;;;;;;;6.28;3.42;;;11.80;90.80;;;;;;5073251;28;20051;-75
2021/05/17 00:07:03;;;;;;;8.65;3.95;;;11.80;91.00;;;;;;5040503;28;20105;-75
2021/05/17 00:09:28;;;;;;;8.47;4.00;;;11.80;90.90;;;;;;5072095;28;20031;-74
2021/05/17 00:11:55;;;;;;;5.70;3.13;;;11.70;91.00;;;;;;5071990;28;20025;-74
2021/05/17 00:14:23;;;;;;;6.87;4.23;;;11.70;90.90;;;;;;5054628;28;20510;-74
2021/05/17 00:16:50;;;;;;;10.07;4.37;;;11.70;91.20;;;;;;5052836;28;20029;-74
2021/05/17 00:19:15;;;;;;;7.13;3.83;;;11.70;91.20;;;;;;5053214;28;20021;-75
2021/05/17 00:21:42;;;;;;;5.77;3.63;;;11.70;91.50;;;;;;5053447;28;20051;-76
2021/05/17 00:24:09;;;;;;;6.87;3.57;;;11.70;91.40;;;;;;5053072;28;20018;-74
2021/05/17 00:26:35;;;;;;;8.73;3.83;;;11.70;91.50;;;;;;5054260;28;20389;-74
2021/05/17 00:29:01;;;;;;;7.67;4.40;;;11.70;91.40;;;;;;5072247;28;20032;-75
2021/05/17 00:31:27;;;;;;;6.03;2.97;;;11.70;91.50;;;;;;5058579;28;20483;-75
2021/05/17 00:33:52;;;;;;;10.40;4.10;;;11.70;91.60;;;;;;5076824;28;20103;-75
2021/05/17 00:36:19;;;;;;;5.63;2.63;;;11.70;91.60;;;;;;5059311;28;20396;-76
2021/05/17 00:38:45;;;;;;;5.47;2.93;;;11.70;91.50;;;;;;5058927;28;20423;-76
2021/05/17 00:41:10;;;;;;;7.67;3.20;;;11.70;91.50;;;;;;5058731;28;20035;-76
2021/05/17 00:43:37;;;;;;;6.57;3.13;;;11.70;91.50;;;;;;5075049;28;20029;-76
2021/05/17 00:46:09;;;;;;;5.80;3.23;;;11.70;91.50;;;;;;5076708;28;20107;-76
2021/05/17 00:48:36;;;;;;;7.17;3.60;;;11.60;91.50;;;;;;5075652;28;20116;-76
2021/05/17 00:51:04;;;;;;;6.37;3.10;;;11.70;91.60;;;;;;5059001;28;20727;-77
2021/05/17 00:53:30;;;;;;;6.22;2.92;;;11.70;91.70;;;;;;5075391;28;20467;-76
2021/05/17 00:55:56;;;;;;;5.75;3.08;;;11.70;92.00;;;;;;5075131;28;20052;-76
2021/05/17 00:58:22;;;;;;;5.18;2.80;;;11.70;91.70;;;;;;5075345;28;20036;-77
2021/05/17 01:00:48;;;;;;;6.33;3.97;;;11.70;91.80;;;;;;5057260;28;20029;-76
2021/05/17 01:03:14;;;;;;;8.15;4.25;;;11.70;91.80;;;;;;5056460;28;20423;-77
2021/05/17 01:05:40;;;;;;;7.40;3.47;;;11.70;91.90;;;;;;5055438;28;20021;-77
2021/05/17 01:08:08;;;;;;;7.97;4.00;;;11.70;91.90;;;;;;5038430;28;20017;-76
2021/05/17 01:10:40;;;;;;;7.80;3.90;;;11.70;91.80;;;;;;5054969;28;20528;-76
2021/05/17 01:13:07;;;;;;;8.00;3.70;;;11.80;91.90;;;;;;5056444;28;20025;-76
2021/05/17 01:15:33;;;;;;;6.87;3.40;;;11.70;92.00;;;;;;5038492;28;20056;-76
2021/05/17 01:18:00;;;;;;;8.57;3.90;;;11.70;92.00;;;;;;5054841;28;20036;-74
2021/05/17 01:20:30;;;;;;;7.60;3.30;;;11.70;92.00;;;;;;5054952;28;20099;-76
2021/05/17 01:25:45;;;;;;;8.53;3.10;;;11.70;91.90;;;;;;5068199;28;20020;-76
2021/05/17 01:28:19;;;;;;;3.97;2.23;;;11.70;91.90;;;;;;5057959;28;20024;-76
2021/05/17 01:30:45;;;;;;;4.78;2.53;;;11.70;91.90;;;;;;5075592;28;20092;-75
2021/05/17 01:33:11;;;;;;;4.90;2.60;;;11.70;91.90;;;;;;5075667;28;20021;-78
2021/05/17 01:35:39;;;;;;;4.70;2.08;;;11.70;91.80;;;;;;5057977;28;20120;-75
2021/05/17 01:38:06;;;;;;;8.60;2.33;;;11.70;91.90;;;;;;5058371;28;20032;-76
2021/05/17 01:40:34;;;;;;;5.93;2.30;;;11.60;91.90;;;;;;5054277;28;20025;-75
2021/05/17 01:43:03;;;;;;;7.03;2.30;;;11.70;91.90;;;;;;5054487;28;20369;-75
2021/05/17 01:45:30;;;;;;;7.20;2.47;;;11.70;91.90;;;;;;5055856;28;20083;-74
2021/05/17 01:47:58;;;;;;;5.27;2.13;;;11.60;92.10;;;;;;5055423;28;20025;-74
2021/05/17 01:50:24;;;;;;;7.53;2.93;;;11.70;91.80;;;;;;5038026;28;20029;-75
2021/05/17 01:52:51;;;;;;;6.80;2.35;;;11.60;91.80;;;;;;5055305;28;20051;-76
2021/05/17 01:55:18;;;;;;;4.93;2.13;;;11.70;91.90;;;;;;5061748;28;20086;-75
2021/05/17 01:57:44;;;;;;;4.67;1.93;;;11.60;91.80;;;;;;5073995;28;20077;-74
2021/05/17 02:00:12;;;;;;;6.13;1.90;;;11.60;91.80;;;;;;5074156;28;20024;-76
2021/05/17 02:02:38;;;;;;;6.57;2.30;;;11.60;91.90;;;;;;5074228;28;20113;-75
2021/05/17 02:05:08;;;;;;;6.43;2.07;;;11.70;92.20;;;;;;5075271;28;20024;-74
2021/05/17 02:07:34;;;;;;;6.57;2.27;;;11.60;91.90;;;;;;5075046;28;20364;-75
2021/05/17 02:10:05;;;;;;;4.37;1.70;;;11.70;91.90;;;;;;5073875;28;20025;-73
2021/05/17 02:12:33;;;;;;;6.93;2.77;;;11.60;91.90;;;;;;5073238;28;20050;-75
2021/05/17 02:14:59;;;;;;;9.07;2.57;;;11.70;91.90;;;;;;5040873;28;20074;-73
2021/05/17 02:17:26;;;;;;;4.03;2.30;;;11.60;92.00;;;;;;5073541;28;20021;-74
2021/05/17 02:19:51;;;;;;;5.27;2.73;;;11.70;92.00;;;;;;5057435;28;20036;-74
2021/05/17 02:22:22;;;;;;;4.50;2.13;;;11.70;92.10;;;;;;5074868;28;20024;-76
2021/05/17 02:24:48;;;;;;;4.95;1.95;;;11.70;92.10;;;;;;5073846;28;20435;-80
2021/05/17 02:27:15;;;;;;;5.43;2.50;;;11.70;92.30;;;;;;5074875;28;20020;-81
2021/05/17 02:29:42;;;;;;;6.67;2.50;;;11.70;92.10;;;;;;5074902;28;20424;-82
2021/05/17 02:32:08;;;;;;;5.30;2.57;;;11.70;92.00;;;;;;5074725;28;20464;-80
2021/05/17 02:34:34;;;;;;;5.87;2.80;;;11.70;92.10;;;;;;5074828;28;20028;-80
2021/05/17 02:37:01;;;;;;;9.05;2.58;;;11.70;92.10;;;;;;5072818;28;20477;-81
2021/05/17 02:39:27;;;;;;;8.30;3.47;;;11.70;92.10;;;;;;5073025;28;20506;-81
2021/05/17 02:41:55;;;;;;;5.47;2.97;;;11.60;92.10;;;;;;5073218;28;20098;-80
2021/05/17 02:44:21;;;;;;;6.97;2.77;;;11.70;92.10;;;;;;5073024;28;20032;-79
2021/05/17 02:46:50;;;;;;;8.15;2.97;;;11.60;92.10;;;;;;5058427;28;20128;-81
2021/05/17 02:49:16;;;;;;;6.97;3.03;;;11.60;92.10;;;;;;5069790;28;20066;-81
2021/05/17 02:51:42;;;;;;;6.93;3.07;;;11.60;92.20;;;;;;5069637;28;20025;-86
2021/05/17 02:54:17;;;;;;;7.97;4.10;;;11.60;92.20;;;;;;5052224;28;20396;-80
2021/05/17 02:56:58;;;;;;;9.07;3.70;;;11.60;92.20;;;;;;5054220;28;20044;-83
2021/05/17 02:59:48;;;;;;;8.67;3.83;;;11.50;92.30;;;;;;5069581;28;20029;-82
2021/05/17 03:02:17;;;;;;;9.53;4.07;;;11.50;92.20;;;;;;5054117;28;20025;-81
2021/05/17 03:04:55;;;;;;;11.30;4.33;;;11.50;92.20;;;;;;5054003;28;20024;-78
2021/05/17 03:07:24;;;;;;;9.43;4.10;;;11.50;92.40;;;;;;5053957;28;20044;-79
2021/05/17 03:09:50;;;;;;;7.80;3.67;;;11.60;92.30;;;;;;5052672;28;20033;-79
2021/05/17 03:12:21;;;;;;;11.53;4.40;;;11.50;92.40;;;;;;5054080;28;20126;-82
2021/05/17 03:14:50;;;;;;;9.27;4.23;;;11.50;92.40;;;;;;5069354;28;20020;-82
2021/05/17 03:17:18;;;;;;;7.87;3.93;;;11.40;92.40;;;;;;5053725;28;20029;-80
2021/05/17 03:19:44;;;;;;;8.93;4.57;;;11.50;92.40;;;;;;5053903;28;20036;-78
2021/05/17 03:22:11;;;;;;;8.53;4.13;;;11.50;92.50;;;;;;5053751;28;20032;-80
2021/05/17 03:24:41;;;;;;;9.63;3.70;;;11.50;92.50;;;;;;5052516;28;20033;-78
2021/05/17 03:27:30;;;;;;;8.60;3.80;;;11.50;92.50;;;;;;5053827;28;20024;-79
2021/05/17 03:29:56;;;;;;;8.77;4.10;;;11.60;92.50;;;;;;5052731;28;20021;-80
2021/05/17 03:32:24;;;;;;;8.43;3.60;;;11.60;92.60;;;;;;5054125;28;20453;-80
2021/05/17 03:34:51;;;;;;;6.97;3.90;;;11.60;92.50;;;;;;5053579;28;20035;-83
2021/05/17 03:37:17;;;;;;;10.20;4.47;;;11.60;92.60;;;;;;5052446;28;20555;-82
2021/05/17 03:39:47;;;;;;;9.20;3.53;;;11.50;92.60;;;;;;5053470;28;20029;-80
2021/05/17 03:42:12;;;;;;;8.17;3.90;;;11.50;92.50;;;;;;5068831;28;20067;-81
2021/05/17 03:44:38;;;;;;;8.97;4.73;;;11.50;92.50;;;;;;5069088;28;20065;-82
2021/05/17 03:47:04;;;;;;;9.83;4.10;;;11.50;92.60;;;;;;5068849;28;20037;-82
2021/05/17 03:49:30;;;;;;;8.23;3.63;;;11.50;92.70;;;;;;5068712;28;20033;-80
2021/05/17 03:51:56;;;;;;;11.60;4.77;;;11.50;92.80;;;;;;5068801;28;20124;-80
2021/05/17 03:54:21;;;;;;;9.33;4.37;;;11.60;92.80;;;;;;5053969;28;20017;-80
2021/05/17 03:56:47;;;;;;;10.13;4.97;;;11.60;92.90;;;;;;5073194;28;20052;-81
2021/05/17 03:59:15;;;;;;;8.67;3.80;;;11.50;92.90;;;;;;5071973;28;20041;-82
2021/05/17 04:01:41;;;;;;;7.73;3.87;;;11.50;92.90;;;;;;5062534;28;20123;-82
2021/05/17 04:04:08;;;;;;;8.17;3.77;;;11.50;93.00;;;;;;5064733;28;20504;-80
2021/05/17 04:14:30;;;;;;;12.25;4.45;;;11.50;93.10;;;;;;5058094;28;20374;-80
2021/05/17 04:16:56;;;;;;;9.63;5.07;;;11.50;93.10;;;;;;5055893;28;20052;-79
2021/05/17 04:19:26;;;;;;;10.20;4.67;;;11.50;93.10;;;;;;5056131;28;20033;-80
2021/05/17 04:21:51;;;;;;;9.50;4.10;;;11.50;93.10;;;;;;5055714;28;20396;-81
2021/05/17 04:24:17;;;;;;;7.80;3.93;;;11.60;93.10;;;;;;5055712;28;20028;-78
2021/05/17 04:26:43;;;;;;;10.47;4.70;;;11.60;93.10;;;;;;5055658;28;20033;-80
2021/05/17 04:29:08;;;;;;;8.27;3.67;;;11.60;93.20;;;;;;5039027;28;20510;-80
2021/05/17 04:31:34;;;;;;;8.57;4.20;;;11.70;93.20;;;;;;5055817;28;20021;-79
2021/05/17 04:33:59;;;;;;;7.90;3.77;;;11.70;93.20;;;;;;5056784;28;20365;-79
2021/05/17 04:36:28;;;;;;;8.70;4.57;;;11.70;93.10;;;;;;5062063;28;20451;-82
2021/05/17 04:38:53;;;;;;;11.43;3.90;;;11.70;93.20;;;;;;5075596;28;20028;-77
2021/05/17 04:41:19;;;;;;;7.50;3.87;;;11.80;93.20;;;;;;5058929;28;20476;-81
2021/05/17 04:43:44;;;;;;;11.80;4.43;;;11.80;93.20;;;;;;5075560;28;20025;-82
2021/05/17 04:46:10;;;;;;;9.65;4.10;;;11.80;93.20;;;;;;5075435;28;20032;-78
2021/05/17 04:48:35;;;;;;;7.68;4.22;;;11.80;93.20;;;;;;5075663;28;20452;-80
2021/05/17 04:51:01;;;;;;;8.65;3.72;;;11.80;93.20;;;;;;5058255;28;20027;-82
2021/05/17 04:53:27;;;;;;;8.50;3.60;;;11.80;93.30;;;;;;5054622;28;20078;-78
2021/05/17 04:55:52;;;;;;;8.23;3.45;;;11.80;93.30;;;;;;5057362;28;20048;-81
2021/05/17 04:58:18;;;;;;;7.05;3.00;;;11.90;93.30;;;;;;5057542;28;20029;-79
2021/05/17 05:00:44;;;;;;;6.93;3.43;;;11.70;93.20;;;;;;5056520;28;20029;-82
2021/05/17 05:03:09;;;;;;;8.23;3.63;;;11.80;93.40;;;;;;5056371;28;20033;-81
2021/05/17 05:05:35;;;;;;;6.75;3.13;;;11.80;93.50;;;;;;5055166;28;20037;-82
2021/05/17 05:08:00;;;;;;;8.57;3.25;;;11.80;93.50;;;;;;5038339;28;20036;-78
2021/05/17 05:10:26;;;;;;;10.95;4.38;;;11.80;93.50;;;;;;5070378;28;20033;-77
2021/05/17 05:12:51;;;;;;;7.57;3.90;;;11.80;93.50;;;;;;5076782;28;20471;-81
2021/05/17 05:15:17;;;;;;;5.80;2.95;;;11.90;93.50;;;;;;5057815;28;20028;-80
2021/05/17 05:17:43;;;;;;;5.63;3.42;;;11.80;93.40;;;;;;5072660;28;20037;-80
2021/05/17 05:20:09;;;;;;;7.65;3.42;;;11.90;93.50;;;;;;5074938;28;20029;-81
2021/05/17 05:22:35;;;;;;;8.70;4.13;;;11.90;93.50;;;;;;5075223;28;20024;-80
2021/05/17 05:25:01;;;;;;;5.90;3.20;;;11.90;93.50;;;;;;5041510;28;20082;-79
2021/05/17 05:27:32;;;;;;;8.43;2.78;;;11.90;93.50;;;;;;5041751;28;20472;-80
2021/05/17 05:32:35;;;;;;;6.25;2.55;;;11.90;93.40;;;;;;5076146;28;20115;-80
2021/05/17 05:35:01;;;;;;;9.88;2.88;;;12.00;93.50;;;;;;5070875;28;20075;-80
2021/05/17 05:37:27;;;;;;;9.38;3.60;;;11.90;93.70;;;;;;5056917;28;20032;-78
2021/05/17 05:39:52;;;;;;;8.37;3.80;;;11.80;93.90;;;;;;5072361;28;20029;-78
2021/05/17 05:42:18;;;;;;;8.07;3.35;;;11.70;93.90;;;;;;5069960;28;20035;-78
2021/05/17 05:44:48;;;;;;;8.07;3.90;;;11.80;94.10;;;;;;5094856;28;20425;-79
2021/05/17 05:47:16;;;;;;;11.63;4.78;;;11.70;94.40;;;;;;5060399;28;20032;-79
2021/05/17 05:49:48;;;;;;;7.72;3.97;;;11.70;94.40;;;;;;5073950;28;20020;-78
2021/05/17 05:52:15;;;;;;;11.10;3.93;;;11.60;94.60;;;;;;5073227;28;20492;-78
2021/05/17 05:54:43;;;;;;;8.35;3.85;;;11.60;94.60;;;;;;5055246;28;20021;-80
2021/05/17 05:57:09;;;;;;;10.93;3.87;;;11.60;94.50;;;;;;5072158;28;20420;-83
2021/05/17 05:59:35;;;;;;;7.43;4.30;;;11.60;94.50;;;;;;5056895;28;20036;-83
2021/05/17 06:02:01;;;;;;;9.10;4.30;;;11.60;94.70;;;;;;5075198;28;20024;-82
2021/05/17 06:04:27;;;;;;;7.95;4.10;;;11.60;94.80;;;;;;5073652;28;20388;-80
2021/05/17 06:06:53;;;;;;;9.30;4.03;;;11.60;95.20;;;;;;5063573;28;20088;-80
2021/05/17 06:09:18;;;;;;;10.30;4.30;;;11.70;95.30;;;;;;5036979;28;20036;-77
2021/05/17 06:11:44;;;;;;;8.33;4.10;;;11.60;95.30;;;;;;5056257;28;20033;-77
2021/05/17 06:14:11;;;;;;;9.40;4.13;;;11.70;95.40;;;;;;5066861;28;20054;-78
2021/05/17 06:16:37;;;;;;;11.25;4.68;;;11.70;95.30;;;;;;5068236;28;20020;-76
2021/05/17 06:19:03;;;;;;;12.33;4.80;;;11.70;95.40;;;;;;5092141;28;20047;-76
2021/05/17 06:21:30;;;;;;;9.90;4.67;;;11.70;95.40;;;;;;5076747;28;20028;-76
2021/05/17 06:23:59;;;;;;;9.33;4.30;;;11.70;95.50;;;;;;5094649;28;20020;-78
2021/05/17 06:26:29;;;;;;;10.93;4.70;;;11.70;95.50;;;;;;5093858;28;20039;-78
2021/05/17 06:28:56;;;;;;;12.57;5.53;;;11.70;95.50;;;;;;5077297;28;20103;-77
2021/05/17 06:31:22;;;;;;;17.02;5.25;;;11.70;95.50;;;;;;5092063;28;20028;-78
2021/05/17 06:33:49;;;;;;;9.23;5.15;;;11.70;95.50;;;;;;5073123;28;20078;-76
2021/05/17 06:36:16;;;;;;;11.80;5.47;;;11.70;95.60;;;;;;5069886;28;20029;-77
2021/05/17 06:38:43;;;;;;;12.70;5.53;;;11.80;95.60;;;;;;5054202;28;20025;-77
2021/05/17 06:41:09;;;;;;;10.83;5.00;;;11.80;95.70;;;;;;5057582;28;20025;-75
2021/05/17 06:43:36;;;;;;;11.07;5.13;;;11.80;95.70;;;;;;5056982;28;20028;-74
2021/05/17 06:46:04;;;;;;;11.70;4.73;;;11.80;95.70;;;;;;5055147;28;20483;-77
2021/05/17 06:48:29;;;;;;;12.27;4.90;;;12.00;95.80;;;;;;5073087;28;20404;-78
2021/05/17 06:50:55;;;;;;;14.00;4.28;;;12.00;95.70;;;;;;5029073;28;20035;-79
2021/05/17 06:53:23;;;;;;;11.07;4.40;;;12.20;95.80;;;;;;5052831;28;20035;-77
2021/05/17 06:58:24;;;;;;;9.90;4.05;;;12.30;95.60;;;;;;5074373;28;20032;-75
2021/05/17 07:00:50;;;;;;;9.75;4.07;;;12.40;95.40;;;;;;5066935;28;20024;-76
2021/05/17 07:03:16;;;;;;;9.27;3.38;;;12.50;95.30;;;;;;5074612;28;20123;-77
2021/05/17 07:05:42;;;;;;;7.03;2.95;;;12.60;95.10;;;;;;5052799;28;20524;-77
2021/05/17 07:13:21;;;;;;;7.95;2.97;;;12.80;94.80;;;;;;5072165;28;20495;-78
2021/05/17 07:15:47;;;;;;;10.65;2.75;;;12.90;94.80;;;;;;5052724;28;20025;-78
2021/05/17 07:18:13;;;;;;;7.32;3.00;;;13.00;94.70;;;;;;5069084;28;20499;-77
2021/05/17 07:25:53;;;;;;;10.35;2.60;;;13.20;93.90;;;;;;5038953;28;20040;-75
2021/05/17 07:28:18;;;;;;;7.20;2.03;;;13.20;93.40;;;;;;5072320;28;20020;-77
2021/05/17 07:30:46;;;;;;;8.60;2.70;;;13.20;92.80;;;;;;5072377;28;20029;-73
2021/05/17 07:33:11;;;;;;;6.28;2.03;;;13.20;92.80;;;;;;5073747;28;20028;-76
2021/05/17 07:35:37;;;;;;;10.75;2.55;;;13.20;92.40;;;;;;5072029;28;20035;-73
2021/05/17 07:38:02;;;;;;;8.30;2.03;;;13.20;92.50;;;;;;5072153;28;20104;-73
2021/05/17 07:40:28;;;;;;;9.73;2.85;;;13.20;92.40;;;;;;5055179;28;20508;-77
2021/05/17 07:42:54;;;;;;;10.07;2.65;;;13.20;92.20;;;;;;5055820;28;20028;-74
2021/05/17 07:45:19;;;;;;;8.00;2.38;;;13.20;92.30;;;;;;5072571;28;20119;-73
2021/05/17 07:47:45;;;;;;;7.97;2.58;;;13.30;92.40;;;;;;5072991;28;20033;-73
2021/05/17 07:50:11;;;;;;;7.40;2.40;;;13.30;91.90;;;;;;5073376;28;20365;-74
2021/05/17 07:52:37;;;;;;;7.28;2.00;;;13.30;91.90;;;;;;5072587;28;20024;-75
2021/05/17 07:55:03;;;;;;;9.05;2.33;;;13.30;91.80;;;;;;5055805;28;20028;-74
2021/05/17 07:57:29;;;;;;;7.38;2.38;;;13.30;91.70;;;;;;5073315;28;20423;-75
2021/05/17 07:59:55;;;;;;;6.18;2.15;;;13.40;91.80;;;;;;5073583;28;20032;-75
2021/05/17 08:02:21;;;;;;;7.07;2.15;;;13.40;91.80;;;;;;5035344;28;20055;-77
2021/05/17 08:04:51;;;;;;;5.82;1.35;;;13.50;91.50;;;;;;5042880;28;20039;-78
2021/05/17 08:07:21;;;;;;;9.77;2.55;;;13.60;91.60;;;;;;5055935;28;20033;-76
2021/05/17 08:09:48;;;;;;;5.78;1.92;;;13.70;91.40;;;;;;5053152;28;20017;-77
2021/05/17 08:12:14;;;;;;;6.65;2.08;;;13.80;91.00;;;;;;5055206;28;20009;-77
2021/05/17 08:14:40;;;;;;;4.00;1.58;;;13.90;90.80;;;;;;5051518;28;20025;-78
2021/05/17 08:17:06;;;;;;;7.47;1.67;;;14.00;90.80;;;;;;5055788;28;20035;-74
2021/05/17 08:19:33;;;;;;;8.30;1.90;;;14.10;90.30;;;;;;5055965;28;20028;-74
2021/05/17 08:22:00;;;;;;;5.95;1.58;;;14.20;90.30;;;;;;5059561;28;20372;-74
2021/05/17 08:24:26;;;;;;;13.52;2.13;;;14.40;89.30;;;;;;5052202;28;20025;-77
2021/05/17 08:26:52;;;;;;;5.82;1.83;;;14.40;89.40;;;;;;5051545;28;20017;-74
2021/05/17 08:29:18;;;;;;;7.68;1.55;;;14.50;88.40;;;;;;5054073;28;20029;-77
2021/05/17 08:31:46;;;;;;;6.63;1.50;;;14.50;88.70;;;;;;5055300;28;20119;-76
2021/05/17 08:34:12;;;;;;;8.23;1.52;;;14.60;89.40;;;;;;5051759;28;20017;-76
2021/05/17 08:36:38;;;;;;;6.28;1.55;;;14.60;86.90;;;;;;5062150;28;20062;-77
2021/05/17 08:39:06;;;;;;;3.20;1.10;;;14.70;87.00;;;;;;5072710;28;20476;-79
2021/05/17 08:41:36;;;;;;;4.63;1.13;;;14.60;85.70;;;;;;5057699;28;20114;-79
2021/05/17 08:44:07;;;;;;;4.93;1.20;;;14.60;85.90;;;;;;5051950;28;20017;-82
2021/05/17 08:46:33;;;;;;;2.28;0.77;;;14.50;85.70;;;;;;5052662;28;20029;-78
2021/05/17 08:48:59;;;;;;;3.08;0.93;;;14.50;86.50;;;;;;5051417;28;20033;-78
2021/05/17 08:51:33;;;;;;;5.15;1.40;;;14.60;86.20;;;;;;5053082;28;20025;-75
2021/05/17 08:54:06;;;;;;;6.80;1.08;;;14.60;86.10;;;;;;5055259;28;20078;-74
2021/05/17 08:56:33;;;;;;;3.90;1.15;;;14.60;85.90;;;;;;5056820;28;20060;-74
2021/05/17 08:59:00;;;;;;;7.95;1.75;;;14.70;86.00;;;;;;5056422;28;20029;-76
2021/05/17 09:01:26;;;;;;;4.93;1.38;;;14.70;85.50;;;;;;5055066;28;20048;-76
2021/05/17 09:03:53;;;;;;;4.93;1.23;;;14.80;85.80;;;;;;5056526;28;20406;-76
2021/05/17 09:06:22;;;;;;;4.55;1.00;;;15.00;86.80;;;;;;5055191;28;20040;-75
2021/05/17 09:08:48;;;;;;;5.40;1.20;;;15.20;85.10;;;;;;5054877;28;20112;-76
2021/05/17 09:11:29;;;;;;;7.72;1.50;;;15.30;84.90;;;;;;5055043;28;20477;-77
2021/05/17 09:14:10;;;;;;;3.33;1.10;;;15.40;84.20;;;;;;5054813;28;20423;-79
2021/05/17 09:16:46;;;;;;;6.20;1.60;;;15.50;83.50;;;;;;5054837;28;20025;-73
2021/05/17 09:19:13;;;;;;;7.57;1.65;;;15.70;83.20;;;;;;5054512;28;20033;-75
2021/05/17 09:21:58;;;;;;;4.47;1.60;;;15.90;82.80;;;;;;5055879;28;20029;-75
2021/05/17 09:24:36;;;;;;;7.03;1.63;;;16.00;80.80;;;;;;5063848;28;20025;-74
2021/05/17 09:27:02;;;;;;;5.38;1.92;;;16.00;79.90;;;;;;5056208;28;20059;-76
2021/05/17 09:29:28;;;;;;;5.10;1.48;;;15.80;79.90;;;;;;5054822;28;20060;-73
2021/05/17 09:31:55;;;;;;;5.00;1.40;;;15.60;80.00;;;;;;5071182;28;20021;-75
2021/05/17 09:34:34;;;;;;;5.00;1.20;;;15.60;79.90;;;;;;5026895;28;20060;-75
2021/05/17 09:37:10;;;;;;;4.40;1.25;;;15.60;79.90;;;;;;5054885;28;20113;-76
2021/05/17 09:39:37;;;;;;;6.10;1.13;;;15.50;79.90;;;;;;5055941;28;20426;-76
2021/05/17 09:42:05;;;;;;;4.00;1.13;;;15.60;80.30;;;;;;5055253;28;20029;-75
2021/05/17 09:44:31;;;;;;;3.70;1.42;;;15.70;80.40;;;;;;5066240;28;20082;-74
2021/05/17 09:47:05;;;;;;;7.32;1.92;;;15.70;80.40;;;;;;5074568;28;20123;-74
2021/05/17 09:49:31;;;;;;;5.13;1.17;;;15.80;80.10;;;;;;5074634;28;20016;-75
2021/05/17 09:52:13;;;;;;;5.78;1.23;;;15.80;80.10;;;;;;5075251;28;20409;-76
2021/05/17 09:54:51;;;;;;;7.90;1.58;;;15.90;80.20;;;;;;5075435;28;20040;-76
2021/05/17 09:57:23;;;;;;;2.65;1.13;;;16.10;80.00;;;;;;5074392;28;20468;-76
2021/05/17 09:59:51;;;;;;;8.23;1.70;;;16.20;79.20;;;;;;5075442;28;20052;-76
2021/05/17 10:02:34;;;;;;;3.20;1.40;;;16.20;77.50;;;;;;5073564;28;20477;-74
2021/05/17 10:05:29;;;;;;;4.40;1.33;;;16.20;77.70;;;;;;5058541;28;20556;-77
2021/05/17 10:08:03;;;;;;;3.83;1.40;;;16.20;77.10;;;;;;5059121;28;20535;-75
2021/05/17 10:10:29;;;;;;;4.90;1.70;;;16.30;77.90;;;;;;5065870;28;20021;-76
2021/05/17 10:13:01;;;;;;;3.72;1.42;;;16.40;77.30;;;;;;5069211;28;20033;-75
2021/05/17 10:15:29;;;;;;;5.03;2.00;;;16.50;77.20;;;;;;5062728;28;20017;-76
2021/05/17 10:17:57;;;;;;;4.57;1.58;;;16.50;76.20;;;;;;5062447;28;20044;-76
2021/05/17 10:20:23;;;;;;;5.05;1.40;;;16.50;76.00;;;;;;5073389;28;20012;-79
2021/05/17 10:22:54;;;;;;;2.13;1.17;;;16.60;76.60;;;;;;5048749;28;20025;-79
2021/05/17 10:25:22;;;;;;;5.35;1.15;;;16.70;75.70;;;;;;5056472;28;20453;-77
2021/05/17 10:27:50;;;;;;;2.85;1.05;;;16.70;75.10;;;;;;5065848;28;20024;-78
2021/05/17 10:30:23;;;;;;;4.05;1.13;;;16.60;74.10;;;;;;5065044;28;20025;-83
2021/05/17 10:32:58;;;;;;;3.95;1.25;;;16.60;73.40;;;;;;5056119;28;20021;-77
2021/05/17 10:35:31;;;;;;;7.85;1.15;;;16.50;73.70;;;;;;5057095;28;20032;-79
2021/05/17 10:38:18;;;;;;;2.58;0.90;;;16.30;73.80;;;;;;5072954;28;20055;-77
2021/05/17 10:40:48;;;;;;;3.78;1.40;;;16.20;75.20;;;;;;5073691;28;20027;-81
2021/05/17 10:43:24;;;;;;;3.97;1.20;;;15.90;76.80;;;;;;5057280;28;20037;-79
2021/05/17 10:48:50;;;;;;;6.28;2.15;;;15.60;80.20;;;;;;5063646;28;20036;-79
2021/05/17 10:51:19;;;;;;;7.93;2.30;;;15.60;81.90;;;;;;5036415;28;20030;-78
2021/05/17 10:53:59;;;;;;;4.28;1.27;;;15.50;82.50;;;;;;5060550;28;20022;-80
2021/05/17 10:56:59;;;;;;;2.97;1.08;;;15.50;82.60;;;;;;5073758;28;20492;-78
2021/05/17 11:02:22;;;;;;;2.67;0.73;;;16.50;85.40;;;;;;5074226;28;20085;-79
2021/05/17 11:04:48;;;;;;;3.03;1.17;;;17.40;85.70;;;;;;5074073;28;20379;-78
2021/05/17 11:07:27;;;;;;;4.65;1.50;;;17.80;82.50;;;;;;5072805;28;20035;-76
2021/05/17 11:09:59;;;;;;;4.78;1.10;;;18.10;78.20;;;;;;5072530;28;20024;-77
2021/05/17 11:12:31;;;;;;;4.07;1.30;;;18.10;76.30;;;;;;5072532;28;20021;-77
2021/05/17 11:15:07;;;;;;;3.15;1.00;;;18.10;76.30;;;;;;5073456;28;20021;-77
2021/05/17 11:17:51;;;;;;;2.28;0.77;;;18.50;76.30;;;;;;5073574;28;20395;-81
2021/05/17 11:20:49;;;;;;;2.00;0.65;;;18.80;74.10;;;;;;5073989;28;20491;-80
2021/05/17 11:23:45;;;;;;;1.50;0.60;;;19.10;73.30;;;;;;5073318;28;20484;-77
2021/05/17 11:26:16;;;;;;;1.88;0.70;;;19.20;71.20;;;;;;5073473;28;20495;-80
2021/05/17 11:28:49;;;;;;;1.98;0.75;;;19.10;69.30;;;;;;5072510;28;20027;-78
2021/05/17 11:34:05;;;;;;;4.18;1.00;;;18.80;68.10;;;;;;5073585;28;20024;-81
2021/05/17 11:36:46;;;;;;;2.90;1.13;;;18.60;67.90;;;;;;5073692;28;20035;-79
2021/05/17 11:39:19;;;;;;;2.88;0.90;;;18.40;68.70;;;;;;5074129;28;20138;-78
2021/05/17 11:42:06;;;;;;;2.17;0.75;;;18.30;69.20;;;;;;5073534;28;20138;-80
2021/05/17 11:44:59;;;;;;;2.97;1.08;;;18.20;69.10;;;;;;5060469;28;20029;-80
2021/05/17 11:47:37;;;;;;;3.60;0.90;;;18.30;70.00;;;;;;5051981;28;20029;-80
2021/05/17 11:50:04;;;;;;;1.35;0.80;;;19.00;71.30;;;;;;5051951;28;20159;-77
2021/05/17 11:52:32;;;;;;;2.75;0.90;;;19.90;71.20;;;;;;5052379;28;20492;-80
2021/05/17 11:55:16;;;;;;;3.55;0.80;;;20.80;70.40;;;;;;5035596;28;20029;-77
2021/05/17 11:57:42;;;;;;;2.65;0.65;;;21.80;68.50;;;;;;5052049;28;20090;-79
2021/05/17 12:00:16;;;;;;;3.15;1.05;;;22.30;66.10;;;;;;5067619;28;20373;-79
2021/05/17 12:02:55;;;;;;;2.85;0.98;;;22.70;62.40;;;;;;5057239;28;20023;-82
2021/05/17 12:05:23;;;;;;;4.10;1.20;;;22.80;60.60;;;;;;5055591;28;20373;-82
2021/05/17 12:07:51;;;;;;;4.53;1.23;;;22.60;59.10;;;;;;5064145;28;20033;-82
2021/05/17 12:10:19;;;;;;;2.83;0.82;;;22.20;58.80;;;;;;5054671;28;20060;-81
2021/05/17 12:12:45;;;;;;;4.32;1.98;;;21.80;59.30;;;;;;5035334;28;20032;-79
2021/05/17 12:15:16;;;;;;;3.85;1.50;;;21.40;59.20;;;;;;5053294;28;20538;-82
2021/05/17 12:17:42;;;;;;;3.53;1.88;;;20.80;60.00;;;;;;5073969;28;20056;-80
2021/05/17 12:20:10;;;;;;;4.78;3.08;;;20.40;61.90;;;;;;5071761;28;20337;-82
2021/05/17 12:22:43;;;;;;;7.40;3.38;;;19.90;62.50;;;;;;5072520;28;20036;-78
2021/05/17 12:25:21;;;;;;;7.55;3.40;;;19.50;63.90;;;;;;5052527;28;20024;-79
2021/05/17 12:27:48;;;;;;;5.15;2.22;;;19.20;64.90;;;;;;5055671;28;20025;-80
2021/05/17 12:30:16;;;;;;;4.22;2.05;;;19.00;65.70;;;;;;5055778;28;20491;-80
2021/05/17 12:32:43;;;;;;;4.07;2.58;;;19.00;65.50;;;;;;5057140;28;20052;-81
2021/05/17 12:35:13;;;;;;;4.78;2.40;;;19.10;64.90;;;;;;5056915;28;20024;-83
2021/05/17 12:37:45;;;;;;;3.42;1.88;;;19.00;64.80;;;;;;5071543;28;20028;-80
2021/05/17 12:40:32;;;;;;;2.67;1.38;;;19.00;63.70;;;;;;5075263;28;20138;-78
2021/05/17 12:43:15;;;;;;;3.00;1.45;;;18.90;62.70;;;;;;5075155;28;20043;-84
2021/05/17 12:45:47;;;;;;;2.80;1.80;;;18.90;61.90;;;;;;5075996;28;20024;-80
2021/05/17 12:48:30;;;;;;;4.10;2.20;;;18.90;61.70;;;;;;5076581;28;20357;-80
2021/05/17 12:51:11;;;;;;;5.05;3.60;;;18.70;61.80;;;;;;5076825;28;20163;-81
2021/05/17 12:53:37;;;;;;;4.57;3.15;;;18.40;64.10;;;;;;5076631;28;20029;-81
2021/05/17 12:56:03;;;;;;;5.68;3.30;;;18.10;66.80;;;;;;5038243;28;20451;-82
2021/05/17 12:58:31;;;;;;;4.50;3.03;;;17.90;68.30;;;;;;5038645;28;20059;-78
2021/05/17 13:00:59;;;;;;;4.78;3.63;;;17.70;69.50;;;;;;5056743;28;20028;-80
2021/05/17 13:03:27;;;;;;;7.68;4.25;;;17.50;70.30;;;;;;5055463;28;20108;-80
2021/05/17 13:05:57;;;;;;;6.43;3.78;;;17.30;71.10;;;;;;5055036;28;20032;-81
2021/05/17 13:08:27;;;;;;;4.72;2.28;;;17.10;72.00;;;;;;5071587;28;20361;-80
2021/05/17 13:11:01;;;;;;;4.22;2.03;;;17.00;70.50;;;;;;5056113;28;20060;-77
2021/05/17 13:13:46;;;;;;;;;;;16.80;69.70;;;;;;5056175;28;20029;-83
2021/05/17 13:16:27;;;;;;;2.67;1.30;;;16.70;70.30;;;;;;5056233;28;19905;-78
2021/05/17 13:19:12;;;;;;;3.92;1.38;;;16.60;70.10;;;;;;5055411;28;20025;-81
2021/05/17 13:21:58;;;;;;;2.25;1.25;;;16.60;70.80;;;;;;5055964;28;20055;-80
2021/05/17 13:32:29;;;;;;;3.67;1.00;;;17.10;70.20;;;;;;5056062;28;20389;-79
2021/05/17 13:34:54;;;;;;;2.00;1.17;;;17.40;70.10;;;;;;5054862;28;20021;-81
2021/05/17 13:37:20;;;;;;;3.67;1.60;;;17.60;69.10;;;;;;5054036;28;20063;-80
2021/05/17 13:39:46;;;;;;;2.45;1.23;;;17.80;68.20;;;;;;5054477;28;20049;-78